sensor_id;sensor_type;location;lat;lon;timestamp;P1;durP1;ratioP1;P2;durP2;ratioP2
17606;SDS011;8922;52.240;20.980;2023-03-01T00:01:50;46.73;;;26.10;;
17606;SDS011;8922;52.240;20.980;2023-03-01T00:04:19;48.10;;;26.00;;
17606;SDS011;8922;52.240;20.980;2023-03-01T00:06:48;47.27;;;24.60;;
17606;SDS011;8922;52.240;20.980;2023-03-01T00:09:17;45.47;;;25.70;;
17606;SDS011;8922;52.240;20.980;2023-03-01T00:11:46;41.10;;;25.07;;
17606;SDS011;8922;52.240;20.980;2023-03-01T00:14:18;50.17;;;27.23;;
17606;SDS011;8922;52.240;20.980;2023-03-01T00:16:47;45.17;;;24.77;;
17606;SDS011;8922;52.240;20.980;2023-03-01T00:19:17;46.00;;;25.33;;
17606;SDS011;8922;52.240;20.980;2023-03-01T00:21:48;49.10;;;25.37;;
17606;SDS011;8922;52.240;20.980;2023-03-01T00:24:17;48.43;;;26.23;;
17606;SDS011;8922;52.240;20.980;2023-03-01T00:26:46;47.43;;;25.13;;
17606;SDS011;8922;52.240;20.980;2023-03-01T00:29:15;50.17;;;27.70;;
17606;SDS011;8922;52.240;20.980;2023-03-01T00:31:45;47.60;;;26.10;;
17606;SDS011;8922;52.240;20.980;2023-03-01T00:34:15;50.93;;;27.30;;
17606;SDS011;8922;52.240;20.980;2023-03-01T00:36:46;55.10;;;26.60;;
17606;SDS011;8922;52.240;20.980;2023-03-01T00:39:16;52.77;;;26.23;;
17606;SDS011;8922;52.240;20.980;2023-03-01T00:41:46;53.80;;;26.87;;
17606;SDS011;8922;52.240;20.980;2023-03-01T00:44:15;50.80;;;27.53;;
17606;SDS011;8922;52.240;20.980;2023-03-01T00:46:45;49.87;;;26.30;;
17606;SDS011;8922;52.240;20.980;2023-03-01T00:49:13;49.33;;;27.23;;
17606;SDS011;8922;52.240;20.980;2023-03-01T00:51:42;50.00;;;26.57;;
17606;SDS011;8922;52.240;20.980;2023-03-01T00:54:10;49.70;;;26.50;;
17606;SDS011;8922;52.240;20.980;2023-03-01T00:56:39;49.60;;;25.73;;
17606;SDS011;8922;52.240;20.980;2023-03-01T00:59:08;41.97;;;24.83;;
17606;SDS011;8922;52.240;20.980;2023-03-01T01:01:36;48.43;;;25.70;;
17606;SDS011;8922;52.240;20.980;2023-03-01T01:04:07;44.60;;;25.80;;
17606;SDS011;8922;52.240;20.980;2023-03-01T01:06:40;48.33;;;26.97;;
17606;SDS011;8922;52.240;20.980;2023-03-01T01:09:12;51.77;;;25.97;;
17606;SDS011;8922;52.240;20.980;2023-03-01T01:11:44;51.33;;;25.90;;
17606;SDS011;8922;52.240;20.980;2023-03-01T01:14:16;40.43;;;22.53;;
17606;SDS011;8922;52.240;20.980;2023-03-01T01:16:47;49.67;;;27.17;;
17606;SDS011;8922;52.240;20.980;2023-03-01T01:19:22;41.17;;;23.07;;
17606;SDS011;8922;52.240;20.980;2023-03-01T01:21:51;45.40;;;24.80;;
17606;SDS011;8922;52.240;20.980;2023-03-01T01:24:20;44.27;;;23.73;;
17606;SDS011;8922;52.240;20.980;2023-03-01T01:26:50;47.00;;;23.57;;
17606;SDS011;8922;52.240;20.980;2023-03-01T01:29:19;46.73;;;25.07;;
17606;SDS011;8922;52.240;20.980;2023-03-01T01:31:48;46.63;;;24.53;;
17606;SDS011;8922;52.240;20.980;2023-03-01T01:34:18;44.57;;;24.43;;
17606;SDS011;8922;52.240;20.980;2023-03-01T01:36:51;48.60;;;24.77;;
17606;SDS011;8922;52.240;20.980;2023-03-01T01:39:20;48.47;;;24.83;;
17606;SDS011;8922;52.240;20.980;2023-03-01T01:41:50;45.20;;;24.93;;
17606;SDS011;8922;52.240;20.980;2023-03-01T01:44:21;46.00;;;24.07;;
17606;SDS011;8922;52.240;20.980;2023-03-01T01:46:53;44.30;;;25.10;;
17606;SDS011;8922;52.240;20.980;2023-03-01T01:49:28;42.07;;;23.37;;
17606;SDS011;8922;52.240;20.980;2023-03-01T01:52:04;45.17;;;24.73;;
17606;SDS011;8922;52.240;20.980;2023-03-01T01:54:39;44.20;;;25.37;;
17606;SDS011;8922;52.240;20.980;2023-03-01T01:57:14;50.40;;;26.03;;
17606;SDS011;8922;52.240;20.980;2023-03-01T01:59:48;47.63;;;26.13;;
17606;SDS011;8922;52.240;20.980;2023-03-01T02:02:20;44.67;;;25.13;;
17606;SDS011;8922;52.240;20.980;2023-03-01T02:04:52;46.10;;;26.10;;
17606;SDS011;8922;52.240;20.980;2023-03-01T02:07:31;44.67;;;24.93;;
17606;SDS011;8922;52.240;20.980;2023-03-01T02:10:00;47.57;;;25.80;;
17606;SDS011;8922;52.240;20.980;2023-03-01T02:12:32;52.20;;;26.23;;
17606;SDS011;8922;52.240;20.980;2023-03-01T02:15:03;41.97;;;24.20;;
17606;SDS011;8922;52.240;20.980;2023-03-01T02:17:33;45.00;;;24.57;;
17606;SDS011;8922;52.240;20.980;2023-03-01T02:20:10;45.37;;;24.83;;
17606;SDS011;8922;52.240;20.980;2023-03-01T02:22:48;45.83;;;24.73;;
17606;SDS011;8922;52.240;20.980;2023-03-01T02:27:56;44.90;;;23.93;;
17606;SDS011;8922;52.240;20.980;2023-03-01T02:30:33;46.37;;;23.57;;
17606;SDS011;8922;52.240;20.980;2023-03-01T02:33:26;39.20;;;22.70;;
17606;SDS011;8922;52.240;20.980;2023-03-01T02:35:55;43.80;;;24.67;;
17606;SDS011;8922;52.240;20.980;2023-03-01T02:38:24;46.80;;;22.93;;
17606;SDS011;8922;52.240;20.980;2023-03-01T02:40:52;46.43;;;24.67;;
17606;SDS011;8922;52.240;20.980;2023-03-01T02:43:23;47.57;;;24.80;;
17606;SDS011;8922;52.240;20.980;2023-03-01T02:46:02;42.57;;;23.57;;
17606;SDS011;8922;52.240;20.980;2023-03-01T02:48:40;42.47;;;22.87;;
17606;SDS011;8922;52.240;20.980;2023-03-01T02:51:19;41.70;;;23.90;;
17606;SDS011;8922;52.240;20.980;2023-03-01T02:54:10;46.33;;;24.80;;
17606;SDS011;8922;52.240;20.980;2023-03-01T02:56:48;47.87;;;24.43;;
17606;SDS011;8922;52.240;20.980;2023-03-01T02:59:20;42.17;;;23.37;;
17606;SDS011;8922;52.240;20.980;2023-03-01T03:01:56;44.77;;;24.43;;
17606;SDS011;8922;52.240;20.980;2023-03-01T03:04:25;47.00;;;24.00;;
17606;SDS011;8922;52.240;20.980;2023-03-01T03:06:53;45.40;;;24.90;;
17606;SDS011;8922;52.240;20.980;2023-03-01T03:09:22;44.07;;;24.90;;
17606;SDS011;8922;52.240;20.980;2023-03-01T03:11:51;51.80;;;26.07;;
17606;SDS011;8922;52.240;20.980;2023-03-01T03:14:19;48.20;;;25.17;;
17606;SDS011;8922;52.240;20.980;2023-03-01T03:16:50;44.73;;;23.90;;
17606;SDS011;8922;52.240;20.980;2023-03-01T03:19:20;50.03;;;25.93;;
17606;SDS011;8922;52.240;20.980;2023-03-01T03:21:48;46.30;;;25.47;;
17606;SDS011;8922;52.240;20.980;2023-03-01T03:24:17;44.03;;;24.77;;
17606;SDS011;8922;52.240;20.980;2023-03-01T03:26:45;49.90;;;26.03;;
17606;SDS011;8922;52.240;20.980;2023-03-01T03:29:15;48.17;;;24.23;;
17606;SDS011;8922;52.240;20.980;2023-03-01T03:31:44;51.47;;;25.40;;
17606;SDS011;8922;52.240;20.980;2023-03-01T03:34:13;49.87;;;25.13;;
17606;SDS011;8922;52.240;20.980;2023-03-01T03:36:46;45.10;;;24.30;;
17606;SDS011;8922;52.240;20.980;2023-03-01T03:39:15;41.03;;;23.27;;
17606;SDS011;8922;52.240;20.980;2023-03-01T03:41:45;43.27;;;23.13;;
17606;SDS011;8922;52.240;20.980;2023-03-01T03:44:15;42.10;;;23.70;;
17606;SDS011;8922;52.240;20.980;2023-03-01T03:46:44;45.33;;;23.57;;
17606;SDS011;8922;52.240;20.980;2023-03-01T03:49:12;36.93;;;22.43;;
17606;SDS011;8922;52.240;20.980;2023-03-01T03:51:41;43.60;;;23.93;;
17606;SDS011;8922;52.240;20.980;2023-03-01T03:54:11;46.53;;;24.13;;
17606;SDS011;8922;52.240;20.980;2023-03-01T03:56:39;42.30;;;22.90;;
17606;SDS011;8922;52.240;20.980;2023-03-01T03:59:10;48.03;;;25.57;;
17606;SDS011;8922;52.240;20.980;2023-03-01T04:01:39;45.90;;;24.97;;
17606;SDS011;8922;52.240;20.980;2023-03-01T04:04:07;42.57;;;23.80;;
17606;SDS011;8922;52.240;20.980;2023-03-01T04:06:36;48.93;;;25.23;;
17606;SDS011;8922;52.240;20.980;2023-03-01T04:09:05;41.70;;;23.80;;
17606;SDS011;8922;52.240;20.980;2023-03-01T04:11:35;49.07;;;24.87;;
17606;SDS011;8922;52.240;20.980;2023-03-01T04:14:05;47.17;;;26.40;;
17606;SDS011;8922;52.240;20.980;2023-03-01T04:16:33;47.10;;;25.50;;
17606;SDS011;8922;52.240;20.980;2023-03-01T04:19:03;45.30;;;25.73;;
17606;SDS011;8922;52.240;20.980;2023-03-01T04:21:32;44.63;;;25.27;;
17606;SDS011;8922;52.240;20.980;2023-03-01T04:24:02;43.77;;;25.43;;
17606;SDS011;8922;52.240;20.980;2023-03-01T04:26:36;45.80;;;24.13;;
17606;SDS011;8922;52.240;20.980;2023-03-01T04:29:04;45.30;;;23.87;;
17606;SDS011;8922;52.240;20.980;2023-03-01T04:31:33;46.43;;;24.23;;
17606;SDS011;8922;52.240;20.980;2023-03-01T04:34:02;44.70;;;23.27;;
17606;SDS011;8922;52.240;20.980;2023-03-01T04:36:31;46.03;;;24.30;;
17606;SDS011;8922;52.240;20.980;2023-03-01T04:39:02;44.57;;;25.53;;
17606;SDS011;8922;52.240;20.980;2023-03-01T04:41:40;47.33;;;23.63;;
17606;SDS011;8922;52.240;20.980;2023-03-01T04:44:11;48.03;;;24.10;;
17606;SDS011;8922;52.240;20.980;2023-03-01T04:46:40;45.87;;;25.20;;
17606;SDS011;8922;52.240;20.980;2023-03-01T04:49:09;46.20;;;23.60;;
17606;SDS011;8922;52.240;20.980;2023-03-01T04:51:39;49.77;;;24.93;;
17606;SDS011;8922;52.240;20.980;2023-03-01T04:54:09;43.87;;;24.50;;
17606;SDS011;8922;52.240;20.980;2023-03-01T04:56:37;48.30;;;25.77;;
17606;SDS011;8922;52.240;20.980;2023-03-01T04:59:07;48.47;;;25.53;;
17606;SDS011;8922;52.240;20.980;2023-03-01T05:01:38;41.97;;;24.27;;
17606;SDS011;8922;52.240;20.980;2023-03-01T05:04:09;44.50;;;24.03;;
17606;SDS011;8922;52.240;20.980;2023-03-01T05:06:39;47.50;;;24.83;;
17606;SDS011;8922;52.240;20.980;2023-03-01T05:09:08;47.73;;;26.63;;
17606;SDS011;8922;52.240;20.980;2023-03-01T05:11:40;48.70;;;26.43;;
17606;SDS011;8922;52.240;20.980;2023-03-01T05:14:09;44.37;;;26.93;;
17606;SDS011;8922;52.240;20.980;2023-03-01T05:16:39;49.83;;;26.37;;
17606;SDS011;8922;52.240;20.980;2023-03-01T05:19:07;42.80;;;24.17;;
17606;SDS011;8922;52.240;20.980;2023-03-01T05:21:42;46.53;;;25.33;;
17606;SDS011;8922;52.240;20.980;2023-03-01T05:24:32;45.77;;;25.03;;
17606;SDS011;8922;52.240;20.980;2023-03-01T05:27:03;47.93;;;24.63;;
17606;SDS011;8922;52.240;20.980;2023-03-01T05:29:34;50.87;;;27.20;;
17606;SDS011;8922;52.240;20.980;2023-03-01T05:32:05;54.73;;;26.70;;
17606;SDS011;8922;52.240;20.980;2023-03-01T05:34:35;48.17;;;25.03;;
17606;SDS011;8922;52.240;20.980;2023-03-01T05:37:04;48.50;;;26.17;;
17606;SDS011;8922;52.240;20.980;2023-03-01T05:39:34;51.30;;;27.07;;
17606;SDS011;8922;52.240;20.980;2023-03-01T05:42:05;52.83;;;27.77;;
17606;SDS011;8922;52.240;20.980;2023-03-01T05:44:37;46.30;;;25.37;;
17606;SDS011;8922;52.240;20.980;2023-03-01T05:47:06;48.93;;;27.33;;
17606;SDS011;8922;52.240;20.980;2023-03-01T05:49:35;47.73;;;26.03;;
17606;SDS011;8922;52.240;20.980;2023-03-01T05:52:05;42.27;;;24.20;;
17606;SDS011;8922;52.240;20.980;2023-03-01T05:54:34;50.03;;;26.57;;
17606;SDS011;8922;52.240;20.980;2023-03-01T05:57:05;51.37;;;26.23;;
17606;SDS011;8922;52.240;20.980;2023-03-01T05:59:33;46.90;;;26.00;;
17606;SDS011;8922;52.240;20.980;2023-03-01T06:02:03;50.93;;;25.43;;
17606;SDS011;8922;52.240;20.980;2023-03-01T06:04:31;50.20;;;25.67;;
17606;SDS011;8922;52.240;20.980;2023-03-01T06:07:00;54.00;;;25.50;;
17606;SDS011;8922;52.240;20.980;2023-03-01T06:09:29;48.80;;;25.33;;
17606;SDS011;8922;52.240;20.980;2023-03-01T06:11:57;52.10;;;25.50;;
17606;SDS011;8922;52.240;20.980;2023-03-01T06:14:27;47.70;;;25.40;;
17606;SDS011;8922;52.240;20.980;2023-03-01T06:16:56;48.33;;;26.17;;
17606;SDS011;8922;52.240;20.980;2023-03-01T06:19:25;43.60;;;25.27;;
17606;SDS011;8922;52.240;20.980;2023-03-01T06:21:54;50.37;;;25.90;;
17606;SDS011;8922;52.240;20.980;2023-03-01T06:24:22;51.37;;;25.83;;
17606;SDS011;8922;52.240;20.980;2023-03-01T06:26:52;49.07;;;26.03;;
17606;SDS011;8922;52.240;20.980;2023-03-01T06:29:22;51.73;;;26.13;;
17606;SDS011;8922;52.240;20.980;2023-03-01T06:31:52;46.13;;;25.30;;
17606;SDS011;8922;52.240;20.980;2023-03-01T06:34:20;47.57;;;25.23;;
17606;SDS011;8922;52.240;20.980;2023-03-01T06:36:49;48.90;;;25.13;;
17606;SDS011;8922;52.240;20.980;2023-03-01T06:39:18;46.63;;;25.40;;
17606;SDS011;8922;52.240;20.980;2023-03-01T06:41:47;41.77;;;23.63;;
17606;SDS011;8922;52.240;20.980;2023-03-01T06:44:15;45.00;;;23.53;;
17606;SDS011;8922;52.240;20.980;2023-03-01T06:46:45;45.93;;;24.27;;
17606;SDS011;8922;52.240;20.980;2023-03-01T06:49:15;42.70;;;23.77;;
17606;SDS011;8922;52.240;20.980;2023-03-01T06:51:44;52.57;;;25.00;;
17606;SDS011;8922;52.240;20.980;2023-03-01T06:54:13;40.70;;;23.40;;
17606;SDS011;8922;52.240;20.980;2023-03-01T06:56:41;40.47;;;23.00;;
17606;SDS011;8922;52.240;20.980;2023-03-01T06:59:10;42.97;;;24.43;;
17606;SDS011;8922;52.240;20.980;2023-03-01T07:01:40;41.87;;;23.67;;
17606;SDS011;8922;52.240;20.980;2023-03-01T07:04:09;43.83;;;23.43;;
17606;SDS011;8922;52.240;20.980;2023-03-01T07:06:39;46.53;;;22.93;;
17606;SDS011;8922;52.240;20.980;2023-03-01T07:09:09;38.47;;;23.33;;
17606;SDS011;8922;52.240;20.980;2023-03-01T07:11:39;39.67;;;23.20;;
17606;SDS011;8922;52.240;20.980;2023-03-01T07:14:09;42.13;;;23.37;;
17606;SDS011;8922;52.240;20.980;2023-03-01T07:16:38;44.37;;;23.53;;
17606;SDS011;8922;52.240;20.980;2023-03-01T07:19:06;43.43;;;24.93;;
17606;SDS011;8922;52.240;20.980;2023-03-01T07:21:35;42.83;;;23.87;;
17606;SDS011;8922;52.240;20.980;2023-03-01T07:24:07;39.17;;;22.40;;
17606;SDS011;8922;52.240;20.980;2023-03-01T07:26:36;41.73;;;22.57;;
17606;SDS011;8922;52.240;20.980;2023-03-01T07:29:06;38.67;;;22.30;;
17606;SDS011;8922;52.240;20.980;2023-03-01T07:31:38;37.73;;;20.63;;
17606;SDS011;8922;52.240;20.980;2023-03-01T07:34:07;35.50;;;21.00;;
17606;SDS011;8922;52.240;20.980;2023-03-01T07:36:37;36.20;;;21.63;;
17606;SDS011;8922;52.240;20.980;2023-03-01T07:39:07;38.83;;;21.83;;
17606;SDS011;8922;52.240;20.980;2023-03-01T07:41:36;38.27;;;21.23;;
17606;SDS011;8922;52.240;20.980;2023-03-01T07:44:06;38.17;;;21.83;;
17606;SDS011;8922;52.240;20.980;2023-03-01T07:46:36;37.43;;;21.43;;
17606;SDS011;8922;52.240;20.980;2023-03-01T07:49:04;36.70;;;20.23;;
17606;SDS011;8922;52.240;20.980;2023-03-01T07:51:33;34.37;;;20.90;;
17606;SDS011;8922;52.240;20.980;2023-03-01T07:54:04;32.70;;;20.00;;
17606;SDS011;8922;52.240;20.980;2023-03-01T07:56:35;30.83;;;19.10;;
17606;SDS011;8922;52.240;20.980;2023-03-01T07:59:03;32.73;;;20.27;;
17606;SDS011;8922;52.240;20.980;2023-03-01T08:01:32;31.13;;;19.53;;
17606;SDS011;8922;52.240;20.980;2023-03-01T08:04:01;36.07;;;20.70;;
17606;SDS011;8922;52.240;20.980;2023-03-01T08:06:33;31.67;;;19.50;;
17606;SDS011;8922;52.240;20.980;2023-03-01T08:09:04;37.90;;;21.03;;
17606;SDS011;8922;52.240;20.980;2023-03-01T08:11:34;33.43;;;18.53;;
17606;SDS011;8922;52.240;20.980;2023-03-01T08:14:04;31.70;;;18.27;;
17606;SDS011;8922;52.240;20.980;2023-03-01T08:16:34;36.47;;;19.37;;
17606;SDS011;8922;52.240;20.980;2023-03-01T08:19:05;36.27;;;19.73;;
17606;SDS011;8922;52.240;20.980;2023-03-01T08:21:40;31.20;;;19.07;;
17606;SDS011;8922;52.240;20.980;2023-03-01T08:24:11;33.53;;;18.97;;
17606;SDS011;8922;52.240;20.980;2023-03-01T08:26:40;32.83;;;18.17;;
17606;SDS011;8922;52.240;20.980;2023-03-01T08:29:09;33.67;;;18.77;;
17606;SDS011;8922;52.240;20.980;2023-03-01T08:34:28;27.67;;;17.00;;
17606;SDS011;8922;52.240;20.980;2023-03-01T08:40:14;26.03;;;17.20;;
17606;SDS011;8922;52.240;20.980;2023-03-01T08:42:43;28.87;;;16.83;;
17606;SDS011;8922;52.240;20.980;2023-03-01T08:45:12;32.23;;;17.20;;
17606;SDS011;8922;52.240;20.980;2023-03-01T08:47:44;30.47;;;17.47;;
17606;SDS011;8922;52.240;20.980;2023-03-01T08:50:13;26.40;;;16.43;;
17606;SDS011;8922;52.240;20.980;2023-03-01T08:52:43;31.83;;;16.17;;
17606;SDS011;8922;52.240;20.980;2023-03-01T08:55:14;27.47;;;16.87;;
17606;SDS011;8922;52.240;20.980;2023-03-01T08:57:43;27.37;;;15.00;;
17606;SDS011;8922;52.240;20.980;2023-03-01T09:00:12;26.13;;;14.87;;
17606;SDS011;8922;52.240;20.980;2023-03-01T09:02:43;24.80;;;15.17;;
17606;SDS011;8922;52.240;20.980;2023-03-01T09:05:13;32.60;;;19.07;;
17606;SDS011;8922;52.240;20.980;2023-03-01T09:07:42;26.37;;;16.17;;
17606;SDS011;8922;52.240;20.980;2023-03-01T09:10:11;30.20;;;16.70;;
17606;SDS011;8922;52.240;20.980;2023-03-01T09:12:41;27.67;;;16.67;;
17606;SDS011;8922;52.240;20.980;2023-03-01T09:15:10;26.33;;;17.07;;
17606;SDS011;8922;52.240;20.980;2023-03-01T09:17:38;31.37;;;18.70;;
17606;SDS011;8922;52.240;20.980;2023-03-01T09:20:08;28.27;;;17.50;;
17606;SDS011;8922;52.240;20.980;2023-03-01T09:22:38;26.87;;;17.73;;
17606;SDS011;8922;52.240;20.980;2023-03-01T09:25:07;26.87;;;17.53;;
17606;SDS011;8922;52.240;20.980;2023-03-01T09:27:37;26.87;;;18.27;;
17606;SDS011;8922;52.240;20.980;2023-03-01T09:30:08;26.83;;;17.60;;
17606;SDS011;8922;52.240;20.980;2023-03-01T09:32:38;23.10;;;16.67;;
17606;SDS011;8922;52.240;20.980;2023-03-01T09:35:09;24.33;;;17.38;;
17606;SDS011;8922;52.240;20.980;2023-03-01T09:37:37;27.27;;;18.90;;
17606;SDS011;8922;52.240;20.980;2023-03-01T09:40:11;24.08;;;16.52;;
17606;SDS011;8922;52.240;20.980;2023-03-01T09:45:48;22.98;;;16.95;;
17606;SDS011;8922;52.240;20.980;2023-03-01T09:48:21;21.02;;;15.68;;
17606;SDS011;8922;52.240;20.980;2023-03-01T09:50:57;19.55;;;14.93;;
17606;SDS011;8922;52.240;20.980;2023-03-01T09:53:31;24.55;;;17.02;;
17606;SDS011;8922;52.240;20.980;2023-03-01T09:56:03;22.90;;;15.77;;
17606;SDS011;8922;52.240;20.980;2023-03-01T10:07:01;21.67;;;16.85;;
17606;SDS011;8922;52.240;20.980;2023-03-01T10:12:41;19.25;;;14.25;;
17606;SDS011;8922;52.240;20.980;2023-03-01T10:15:14;18.25;;;13.90;;
17606;SDS011;8922;52.240;20.980;2023-03-01T10:17:48;16.55;;;12.98;;
17606;SDS011;8922;52.240;20.980;2023-03-01T10:20:31;16.55;;;12.82;;
17606;SDS011;8922;52.240;20.980;2023-03-01T10:25:44;15.93;;;14.05;;
17606;SDS011;8922;52.240;20.980;2023-03-01T10:28:25;15.45;;;12.70;;
17606;SDS011;8922;52.240;20.980;2023-03-01T10:30:58;16.63;;;13.77;;
17606;SDS011;8922;52.240;20.980;2023-03-01T10:36:05;15.70;;;12.07;;
17606;SDS011;8922;52.240;20.980;2023-03-01T10:38:47;17.17;;;14.45;;
17606;SDS011;8922;52.240;20.980;2023-03-01T10:41:22;16.08;;;10.85;;
17606;SDS011;8922;52.240;20.980;2023-03-01T10:43:53;13.93;;;11.20;;
17606;SDS011;8922;52.240;20.980;2023-03-01T10:49:14;15.25;;;11.98;;
17606;SDS011;8922;52.240;20.980;2023-03-01T10:51:50;13.05;;;11.20;;
17606;SDS011;8922;52.240;20.980;2023-03-01T10:54:22;11.48;;;10.27;;
17606;SDS011;8922;52.240;20.980;2023-03-01T10:59:38;14.05;;;11.23;;
17606;SDS011;8922;52.240;20.980;2023-03-01T11:02:15;14.82;;;10.88;;
17606;SDS011;8922;52.240;20.980;2023-03-01T11:04:56;13.40;;;11.40;;
17606;SDS011;8922;52.240;20.980;2023-03-01T11:07:46;14.77;;;11.35;;
17606;SDS011;8922;52.240;20.980;2023-03-01T11:10:16;11.65;;;10.43;;
17606;SDS011;8922;52.240;20.980;2023-03-01T11:21:15;11.50;;;9.57;;
17606;SDS011;8922;52.240;20.980;2023-03-01T11:23:44;12.13;;;9.13;;
17606;SDS011;8922;52.240;20.980;2023-03-01T11:26:14;15.18;;;11.93;;
17606;SDS011;8922;52.240;20.980;2023-03-01T11:28:45;13.43;;;9.98;;
17606;SDS011;8922;52.240;20.980;2023-03-01T11:34:23;11.98;;;9.77;;
17606;SDS011;8922;52.240;20.980;2023-03-01T11:37:09;10.52;;;9.43;;
17606;SDS011;8922;52.240;20.980;2023-03-01T11:42:38;10.32;;;8.98;;
17606;SDS011;8922;52.240;20.980;2023-03-01T11:48:27;11.25;;;8.85;;
17606;SDS011;8922;52.240;20.980;2023-03-01T11:51:31;13.52;;;9.23;;
17606;SDS011;8922;52.240;20.980;2023-03-01T11:54:17;11.88;;;9.27;;
17606;SDS011;8922;52.240;20.980;2023-03-01T11:57:00;10.27;;;8.50;;
17606;SDS011;8922;52.240;20.980;2023-03-01T12:05:46;9.77;;;8.70;;
17606;SDS011;8922;52.240;20.980;2023-03-01T12:08:37;9.90;;;8.73;;
17606;SDS011;8922;52.240;20.980;2023-03-01T12:13:58;9.25;;;8.32;;
17606;SDS011;8922;52.240;20.980;2023-03-01T12:17:17;10.90;;;8.45;;
17606;SDS011;8922;52.240;20.980;2023-03-01T12:23:05;10.80;;;8.43;;
17606;SDS011;8922;52.240;20.980;2023-03-01T12:26:04;9.18;;;8.20;;
17606;SDS011;8922;52.240;20.980;2023-03-01T12:28:48;9.43;;;8.23;;
17606;SDS011;8922;52.240;20.980;2023-03-01T12:34:49;9.05;;;8.07;;
17606;SDS011;8922;52.240;20.980;2023-03-01T12:37:41;10.27;;;9.18;;
17606;SDS011;8922;52.240;20.980;2023-03-01T12:40:58;10.75;;;7.93;;
17606;SDS011;8922;52.240;20.980;2023-03-01T12:43:45;11.65;;;7.88;;
17606;SDS011;8922;52.240;20.980;2023-03-01T12:46:28;10.02;;;8.23;;
17606;SDS011;8922;52.240;20.980;2023-03-01T12:49:12;10.35;;;8.35;;
17606;SDS011;8922;52.240;20.980;2023-03-01T12:51:45;12.18;;;8.90;;
17606;SDS011;8922;52.240;20.980;2023-03-01T12:54:26;10.50;;;9.02;;
17606;SDS011;8922;52.240;20.980;2023-03-01T12:59:43;8.95;;;7.70;;
17606;SDS011;8922;52.240;20.980;2023-03-01T13:02:30;11.02;;;7.65;;
17606;SDS011;8922;52.240;20.980;2023-03-01T13:05:07;11.00;;;8.20;;
17606;SDS011;8922;52.240;20.980;2023-03-01T13:13:21;9.65;;;8.65;;
17606;SDS011;8922;52.240;20.980;2023-03-01T13:15:56;12.18;;;9.70;;
17606;SDS011;8922;52.240;20.980;2023-03-01T13:18:27;12.15;;;9.82;;
17606;SDS011;8922;52.240;20.980;2023-03-01T13:21:01;13.90;;;9.85;;
17606;SDS011;8922;52.240;20.980;2023-03-01T13:23:33;10.25;;;8.93;;
17606;SDS011;8922;52.240;20.980;2023-03-01T13:45:04;9.98;;;7.25;;
17606;SDS011;8922;52.240;20.980;2023-03-01T13:47:58;11.77;;;7.80;;
17606;SDS011;8922;52.240;20.980;2023-03-01T13:50:33;11.57;;;7.60;;
17606;SDS011;8922;52.240;20.980;2023-03-01T13:53:10;10.85;;;7.22;;
17606;SDS011;8922;52.240;20.980;2023-03-01T13:58:50;9.93;;;7.60;;
17606;SDS011;8922;52.240;20.980;2023-03-01T14:01:23;10.97;;;7.53;;
17606;SDS011;8922;52.240;20.980;2023-03-01T14:03:56;11.20;;;7.60;;
17606;SDS011;8922;52.240;20.980;2023-03-01T14:06:26;14.47;;;8.30;;
17606;SDS011;8922;52.240;20.980;2023-03-01T14:09:02;13.10;;;8.60;;
17606;SDS011;8922;52.240;20.980;2023-03-01T14:12:00;11.57;;;8.00;;
17606;SDS011;8922;52.240;20.980;2023-03-01T14:14:56;15.80;;;9.60;;
17606;SDS011;8922;52.240;20.980;2023-03-01T14:17:38;11.53;;;7.93;;
17606;SDS011;8922;52.240;20.980;2023-03-01T14:20:27;11.87;;;8.53;;
17606;SDS011;8922;52.240;20.980;2023-03-01T14:23:02;13.73;;;8.40;;
17606;SDS011;8922;52.240;20.980;2023-03-01T14:25:45;9.90;;;7.70;;
17606;SDS011;8922;52.240;20.980;2023-03-01T14:28:17;12.67;;;8.63;;
17606;SDS011;8922;52.240;20.980;2023-03-01T14:30:52;11.40;;;7.90;;
17606;SDS011;8922;52.240;20.980;2023-03-01T14:33:27;13.00;;;8.63;;
17606;SDS011;8922;52.240;20.980;2023-03-01T14:36:00;12.73;;;9.17;;
17606;SDS011;8922;52.240;20.980;2023-03-01T14:38:32;9.80;;;7.97;;
17606;SDS011;8922;52.240;20.980;2023-03-01T14:41:03;11.40;;;8.50;;
17606;SDS011;8922;52.240;20.980;2023-03-01T14:46:20;14.77;;;8.10;;
17606;SDS011;8922;52.240;20.980;2023-03-01T14:51:36;12.13;;;8.73;;
17606;SDS011;8922;52.240;20.980;2023-03-01T15:00:35;12.57;;;8.97;;
17606;SDS011;8922;52.240;20.980;2023-03-01T15:03:08;13.83;;;9.47;;
17606;SDS011;8922;52.240;20.980;2023-03-01T15:05:42;13.40;;;9.50;;
17606;SDS011;8922;52.240;20.980;2023-03-01T15:08:15;13.97;;;9.60;;
17606;SDS011;8922;52.240;20.980;2023-03-01T15:18:32;13.60;;;10.57;;
17606;SDS011;8922;52.240;20.980;2023-03-01T15:23:48;14.47;;;10.27;;
17606;SDS011;8922;52.240;20.980;2023-03-01T15:26:26;14.23;;;11.00;;
17606;SDS011;8922;52.240;20.980;2023-03-01T15:29:00;15.33;;;10.20;;
17606;SDS011;8922;52.240;20.980;2023-03-01T15:31:29;15.40;;;11.00;;
17606;SDS011;8922;52.240;20.980;2023-03-01T15:34:19;14.73;;;10.70;;
17606;SDS011;8922;52.240;20.980;2023-03-01T15:36:52;15.63;;;10.60;;
17606;SDS011;8922;52.240;20.980;2023-03-01T15:39:37;14.90;;;10.07;;
17606;SDS011;8922;52.240;20.980;2023-03-01T15:42:10;16.63;;;10.13;;
17606;SDS011;8922;52.240;20.980;2023-03-01T15:44:43;19.43;;;10.67;;
17606;SDS011;8922;52.240;20.980;2023-03-01T15:47:28;19.20;;;12.07;;
17606;SDS011;8922;52.240;20.980;2023-03-01T15:50:00;18.37;;;10.73;;
17606;SDS011;8922;52.240;20.980;2023-03-01T15:52:31;19.73;;;11.30;;
17606;SDS011;8922;52.240;20.980;2023-03-01T15:55:06;20.10;;;11.90;;
17606;SDS011;8922;52.240;20.980;2023-03-01T15:57:45;17.03;;;11.03;;
17606;SDS011;8922;52.240;20.980;2023-03-01T16:00:15;16.17;;;10.77;;
17606;SDS011;8922;52.240;20.980;2023-03-01T16:02:45;16.27;;;10.77;;
17606;SDS011;8922;52.240;20.980;2023-03-01T16:05:27;17.57;;;10.93;;
17606;SDS011;8922;52.240;20.980;2023-03-01T16:07:58;21.77;;;13.67;;
17606;SDS011;8922;52.240;20.980;2023-03-01T16:10:27;16.30;;;11.03;;
17606;SDS011;8922;52.240;20.980;2023-03-01T16:12:56;16.33;;;10.77;;
17606;SDS011;8922;52.240;20.980;2023-03-01T16:15:25;17.33;;;10.57;;
17606;SDS011;8922;52.240;20.980;2023-03-01T16:17:58;18.57;;;11.57;;
17606;SDS011;8922;52.240;20.980;2023-03-01T16:20:29;18.83;;;10.93;;
17606;SDS011;8922;52.240;20.980;2023-03-01T16:23:01;21.70;;;12.23;;
17606;SDS011;8922;52.240;20.980;2023-03-01T16:25:32;19.10;;;11.43;;
17606;SDS011;8922;52.240;20.980;2023-03-01T16:28:02;21.77;;;13.10;;
17606;SDS011;8922;52.240;20.980;2023-03-01T16:30:35;21.07;;;12.80;;
17606;SDS011;8922;52.240;20.980;2023-03-01T16:33:06;19.93;;;11.70;;
17606;SDS011;8922;52.240;20.980;2023-03-01T16:35:56;22.70;;;13.70;;
17606;SDS011;8922;52.240;20.980;2023-03-01T16:38:29;18.63;;;12.13;;
17606;SDS011;8922;52.240;20.980;2023-03-01T16:40:59;18.17;;;11.40;;
17606;SDS011;8922;52.240;20.980;2023-03-01T16:43:28;21.90;;;12.13;;
17606;SDS011;8922;52.240;20.980;2023-03-01T16:45:57;20.67;;;12.07;;
17606;SDS011;8922;52.240;20.980;2023-03-01T16:48:26;20.73;;;11.10;;
17606;SDS011;8922;52.240;20.980;2023-03-01T16:50:57;23.33;;;12.80;;
17606;SDS011;8922;52.240;20.980;2023-03-01T16:53:26;22.70;;;12.03;;
17606;SDS011;8922;52.240;20.980;2023-03-01T16:55:56;20.57;;;12.00;;